EFOUESPA

Guest
Details From EFOU - Oulu
To ESPA - Lulea Kallax
Flight Number -
Tags generated
Created
Modified
Stats Distance 89 nm / 166 km
Max Altitude 0 ft / 0 m
Waypoints 3
Social Downloads 0
Likes 0
Share VATSIM

Download

Looking for another format? Having issues loading an existing format? Contact us
Advertisement - Login to hide

Notes

Basic altitude profile: - Ascent Rate: 2500ft/min - Ascent Speed: 250kts - Cruise Altitude: 35000ft - Cruise Speed: 420kts - Descent Rate: 1500ft/min - Descent Speed: 250kts Options: - Use NATs: yes - Use PACOTS: yes - Use low airways: yes - Use high airways: no

Route

EFOU OUK ESPA

ID Type Via Altitude Latitude Longitude Leg Dist Tot Dist Heading (true) Name
O EFOU APT - 0 ft / 0 m 64.93006˚ 25.35456˚ - 0 nm - Oulu
OUK VOR - 0 ft / 0 m 64.93155˚ 25.35928˚ 0 nm 0 nm 53° / 53° OULU VOR-DME
O ESPA APT - 0 ft / 0 m 65.54376˚ 22.12198˚ 89 nm 89 nm 296° / 293° Lulea Kallax

Altitude Profile

Advertisement - Login to hide

EFOU

Details ICAO EFOU (OUL)
Name Oulu
Region Finland
Timezone Europe/Helsinki (UTC+3.0)
Stats Elevation 47 ft / 14 m (AMSL)
Location 64.930059° 25.354560°
Runways 1
Magnetic Variation 10.741° E

METAR

EFOU 222320Z AUTO 34008KT CAVOK 10/07 Q1016

Decode

TAF

TAF EFOU 222025Z 2221/2321 25005KT CAVOK BECMG 2221/2223 33013KT TEMPO 2222/2303 35015G25KT SCT050CB

Decode

Departure Runways

ID Width Length Bearing (true) Bearing (mag) Surface Threshold Offset Overrun Length
12 197 ft / 60 m 8,180 ft / 2,493 m 121.01° 110.27° Asphalt 0 ft / 0 m 200 ft / 61 m
30 197 ft / 60 m 8,180 ft / 2,493 m 301.05° 290.31° Asphalt 0 ft / 0 m 200 ft / 61 m

ESPA

Details ICAO ESPA (LLA)
Name Lulea Kallax
Region Sweden
Timezone Europe/Stockholm (UTC+2.0)
Stats Elevation 65 ft / 20 m (AMSL)
Location 65.543757° 22.121979°
Runways 1
Magnetic Variation 9.408° E

METAR

ESPA 222320Z AUTO 35010KT 9999 NCD 10/M02 Q1020

Decode

TAF

Not found

Destination Runways

ID Width Length Bearing (true) Bearing (mag) Surface Threshold Offset Overrun Length
14 148 ft / 45 m 10,957 ft / 3,340 m 137.32° 127.91° Asphalt 0 ft / 0 m 0 ft / 0 m
32 148 ft / 45 m 10,957 ft / 3,340 m 317.36° 307.95° Asphalt 0 ft / 0 m 0 ft / 0 m

Approach Navaids

Runway Type Ident Frequency Range Bearing (true) Bearing (mag) Slope Elevation
14 Localiser PA 110.30 MHz 18 nm / 33 km 137.38° 127.97° - 65 ft / 20 m (AMSL)
14 Glidescope PA 110.30 MHz 10 nm / 19 km 137.34° 127.93° 2.86° 65 ft / 20 m (AMSL)
32 Localiser SPA 109.90 MHz 18 nm / 33 km 317.33° 307.92° - 65 ft / 20 m (AMSL)
32 Glidescope SPA 109.90 MHz 10 nm / 19 km 317.34° 307.93° 2.86° 65 ft / 20 m (AMSL)
32 DME SPA 109.90 MHz 18 nm / 33 km - - - 45 ft / 14 m (AMSL)

Popular Alternatives